KPTB/PTB METAR and TAF weather

Enter ICAO airport designator
Station Type Date Time Source
KPTB METAR 2021/07/26 15:15 UTC NOAA

KPTB 261515Z AUTO 21006KT 10SM OVC022 29/23 A2998 RMK AO2 T02910227 TSNO


Station Type Date Time Source
KPTB Decoded METAR 2021/07/26 15:15 UTC NOAA

Petersburg, Dinwiddie County Airport, VA, United States (KPTB) 37-11N 077-31W
Jul 26, 2021 - 11:15 AM EDT / 2021.07.26 1515 UTC
Wind: from the SSW (210 degrees) at 7 MPH (6 KT):0
Visibility: 10 mile(s):0
Sky conditions: overcast
Temperature: 84.4 F (29.1 C)
Dew Point: 72.9 F (22.7 C)
Relative Humidity: 68%
Pressure (altimeter): 29.98 in. Hg (1015 hPa)
ob: KPTB 261515Z AUTO 21006KT 10SM OVC022 29/23 A2998 RMK AO2 T02910227 TSNO
cycle: 15

Station Type Date Time Source
KPTB TAF UTC NOAA

Error!

Example: see airport list